Time;durP1;ratioP1;P1;durP2;ratioP2;P2;SDS_P1;SDS_P2;PMS_P1;PMS_P2;Temp;Humidity;BMP_temperature;BMP_pressure;BME280_temperature;BME280_humidity;BME280_pressure;Samples;Min_cycle;Max_cycle;Signal;HPM_P1;HPM_P2
2020/12/19 00:01:34;;;;;;;18.95;4.70;;;4.20;84.40;;;3.21;69.05;95688.84;5019033;28;20576;-82
2020/12/19 00:04:02;;;;;;;12.63;4.00;;;4.20;84.40;;;3.20;69.08;95689.78;5035100;28;20216;-80
2020/12/19 00:06:29;;;;;;;11.77;4.03;;;4.20;84.40;;;3.19;68.98;95690.72;5035113;28;20200;-79
2020/12/19 00:08:56;;;;;;;12.40;4.18;;;4.10;84.40;;;3.15;68.92;95687.56;5033989;28;20695;-82
2020/12/19 00:11:24;;;;;;;16.88;4.30;;;4.20;84.50;;;3.11;69.08;95672.38;5019153;28;20499;-82
2020/12/19 00:13:51;;;;;;;20.30;4.85;;;4.10;84.40;;;3.12;69.23;95677.44;5035180;28;20688;-82
2020/12/19 00:16:19;;;;;;;12.02;4.55;;;4.20;84.50;;;3.11;69.38;95678.38;5051622;28;20189;-82
2020/12/19 00:18:46;;;;;;;20.80;4.55;;;4.10;84.50;;;3.11;69.30;95673.19;5035440;28;20250;-82
2020/12/19 00:21:13;;;;;;;12.40;4.32;;;4.10;84.50;;;3.12;69.41;95677.44;5035145;28;20238;-82
2020/12/19 00:23:39;;;;;;;20.45;5.10;;;4.10;84.50;;;3.12;69.28;95676.63;5035177;28;20246;-82
2020/12/19 00:26:06;;;;;;;25.80;3.88;;;4.10;84.50;;;3.12;69.42;95682.63;5034756;28;20281;-82
2020/12/19 00:28:33;;;;;;;20.35;4.30;;;4.10;84.60;;;3.12;69.13;95680.03;5018945;28;20623;-82
2020/12/19 00:31:02;;;;;;;15.32;4.05;;;4.10;84.60;;;3.11;69.30;95670.59;5035149;28;20204;-81
2020/12/19 00:33:28;;;;;;;30.88;4.53;;;4.10;84.60;;;3.12;69.32;95669.66;5034955;28;20334;-82
2020/12/19 00:35:55;;;;;;;22.77;4.03;;;4.10;84.60;;;3.09;69.58;95656.13;5051055;28;20286;-82
2020/12/19 00:38:22;;;;;;;16.17;3.75;;;4.10;84.50;;;3.12;69.21;95658.47;5022984;28;20712;-82
2020/12/19 00:40:57;;;;;;;24.40;4.03;;;4.00;84.50;;;3.12;69.35;95651.50;5035736;28;20215;-81
2020/12/19 00:43:24;;;;;;;27.92;3.58;;;4.10;84.60;;;3.09;69.22;95646.59;5018354;28;20199;-82
2020/12/19 00:45:51;;;;;;;16.55;3.35;;;4.20;84.60;;;3.11;69.35;95644.69;5051132;28;20215;-82
2020/12/19 00:48:18;;;;;;;12.18;3.30;;;4.10;84.50;;;3.12;69.30;95646.34;5034827;28;20211;-81
2020/12/19 00:50:45;;;;;;;12.70;3.50;;;4.10;84.50;;;3.12;69.08;95650.72;5050987;28;20220;-82
2020/12/19 00:53:11;;;;;;;18.13;3.95;;;4.00;84.40;;;3.12;68.81;95645.53;5018098;28;20311;-82
2020/12/19 00:55:38;;;;;;;8.63;3.05;;;4.00;84.40;;;3.09;69.25;95645.75;5034172;28;20226;-82
2020/12/19 00:58:05;;;;;;;19.92;3.80;;;4.00;84.40;;;3.07;68.90;95635.53;5018501;28;20684;-82
2020/12/19 01:00:32;;;;;;;14.77;3.75;;;4.10;84.50;;;3.08;69.09;95644.97;5051052;28;20285;-82
2020/12/19 01:02:58;;;;;;;13.63;3.70;;;4.10;84.40;;;3.06;68.84;95649.44;5067766;28;20712;-82
2020/12/19 01:05:25;;;;;;;9.32;3.40;;;4.00;84.40;;;3.07;68.93;95651.09;5017811;28;20219;-82
2020/12/19 01:07:52;;;;;;;8.13;3.30;;;4.00;84.40;;;3.03;69.26;95642.75;5050724;28;20234;-82
2020/12/19 01:10:18;;;;;;;24.60;4.05;;;4.00;84.40;;;3.06;69.09;95646.03;5050704;28;20258;-81
2020/12/19 01:12:46;;;;;;;18.05;4.28;;;4.00;84.40;;;3.00;69.02;95637.81;5034197;28;20223;-82
2020/12/19 01:15:13;;;;;;;18.90;3.92;;;4.00;84.30;;;3.02;69.09;95645.47;5018112;28;20278;-81
2020/12/19 01:17:40;;;;;;;20.02;3.78;;;4.00;84.40;;;3.00;68.99;95637.81;5018352;28;20238;-82
2020/12/19 01:20:07;;;;;;;25.50;4.22;;;4.00;84.30;;;2.99;68.90;95641.34;5035464;28;20223;-82
2020/12/19 01:22:35;;;;;;;44.80;4.68;;;4.00;84.40;;;2.98;68.99;95636.28;5022289;28;20196;-82
2020/12/19 01:25:03;;;;;;;49.25;4.80;;;3.90;84.30;;;2.96;69.34;95639.00;5050709;28;20216;-82
2020/12/19 01:27:30;;;;;;;41.53;4.43;;;4.00;84.40;;;2.93;68.95;95639.28;5002545;28;20567;-82
2020/12/19 01:29:56;;;;;;;42.70;4.47;;;3.90;84.40;;;2.94;69.14;95645.28;5038261;28;20235;-82
2020/12/19 01:32:23;;;;;;;24.13;3.75;;;3.90;84.30;;;2.90;69.22;95636.94;5038097;28;20262;-82
2020/12/19 01:34:49;;;;;;;20.35;3.50;;;3.90;84.30;;;2.91;68.83;95645.53;5038330;28;20306;-82
2020/12/19 01:37:19;;;;;;;7.43;4.60;;;3.90;84.30;;;2.86;69.26;95645.91;5038761;28;20203;-82
2020/12/19 01:39:46;;;;;;;8.15;4.85;;;3.90;84.30;;;2.85;69.28;95646.84;5037506;28;20212;-82
2020/12/19 01:42:13;;;;;;;9.43;5.70;;;3.90;84.30;;;2.79;69.03;95650.75;5054369;28;20191;-82
2020/12/19 01:44:39;;;;;;;10.70;4.90;;;3.90;84.20;;;2.79;69.01;95640.38;5034361;28;20229;-81
2020/12/19 01:47:10;;;;;;;10.70;4.97;;;3.80;84.10;;;2.72;69.07;95637.50;5018179;28;20236;-82
2020/12/19 01:49:37;;;;;;;8.82;5.05;;;3.80;84.20;;;2.68;69.10;95635.28;5017991;28;20256;-82
2020/12/19 01:52:07;;;;;;;11.32;5.47;;;3.80;84.20;;;2.71;68.62;95635.00;5018450;28;20566;-83
2020/12/19 01:54:34;;;;;;;10.73;5.22;;;3.70;84.10;;;2.70;69.20;95635.97;5046920;28;20263;-81
2020/12/19 01:57:02;;;;;;;8.15;4.57;;;3.80;84.20;;;2.68;69.19;95633.50;5054394;28;20196;-82
2020/12/19 01:59:32;;;;;;;7.80;4.80;;;3.70;84.20;;;2.69;68.93;95629.16;5037803;28;20220;-82
2020/12/19 02:02:08;;;;;;;8.65;4.85;;;3.70;84.20;;;2.67;69.18;95625.84;5037886;28;20181;-82
2020/12/19 02:04:35;;;;;;;7.60;4.38;;;3.80;84.30;;;2.67;69.12;95631.03;5054016;28;20278;-82
2020/12/19 02:07:05;;;;;;;8.55;4.53;;;3.70;84.20;;;2.65;68.96;95625.16;5033990;28;20290;-81
2020/12/19 02:09:37;;;;;;;10.95;5.18;;;3.60;84.20;;;2.67;69.30;95625.84;5033817;28;20315;-82
2020/12/19 02:12:06;;;;;;;6.88;4.68;;;3.70;84.30;;;2.64;69.22;95623.53;5034022;28;20232;-82
2020/12/19 02:14:32;;;;;;;6.53;4.75;;;3.70;84.30;;;2.62;69.04;95623.63;5052776;28;20221;-82
2020/12/19 02:17:05;;;;;;;7.90;4.65;;;3.70;84.30;;;2.63;69.17;95609.75;5054486;28;20196;-82
2020/12/19 02:19:34;;;;;;;8.02;4.38;;;3.70;84.30;;;2.63;69.10;95609.75;5037588;28;20317;-82
2020/12/19 02:22:02;;;;;;;8.23;4.38;;;3.70;84.30;;;2.62;69.38;95612.47;5053563;28;20189;-82
2020/12/19 02:24:30;;;;;;;8.55;5.00;;;3.60;84.30;;;2.62;68.99;95617.66;5037112;28;20226;-81
2020/12/19 02:26:58;;;;;;;6.05;4.55;;;3.70;84.30;;;2.62;69.10;95599.53;5032964;28;20191;-82
2020/12/19 02:29:30;;;;;;;5.65;4.07;;;3.60;84.30;;;2.62;68.99;95596.94;5017514;28;20596;-81
2020/12/19 02:31:59;;;;;;;5.50;3.92;;;3.60;84.30;;;2.62;69.13;95591.75;5016276;28;20225;-81
2020/12/19 02:34:27;;;;;;;7.30;4.35;;;3.60;84.30;;;2.62;69.15;95589.16;5036580;28;20215;-82
2020/12/19 02:36:54;;;;;;;5.78;3.70;;;3.60;84.30;;;2.62;69.15;95592.56;5033571;28;20197;-81
2020/12/19 02:39:21;;;;;;;5.90;4.00;;;3.60;84.30;;;2.62;69.18;95597.75;5017519;28;20584;-82
2020/12/19 02:41:48;;;;;;;4.65;3.75;;;3.60;84.30;;;2.61;69.21;95596.09;5017323;28;20201;-82
2020/12/19 02:44:19;;;;;;;7.53;4.35;;;3.60;84.40;;;2.58;69.09;95596.34;5030044;28;20224;-82
2020/12/19 02:46:47;;;;;;;5.60;3.90;;;3.60;84.30;;;2.62;69.10;95596.94;5020549;28;20192;-81
2020/12/19 02:49:14;;;;;;;7.05;3.65;;;3.60;84.30;;;2.63;69.03;95604.56;5020376;28;20806;-81
2020/12/19 02:51:41;;;;;;;7.20;4.15;;;3.60;84.40;;;2.65;69.19;95599.25;5020249;28;20192;-82
2020/12/19 02:54:08;;;;;;;5.82;4.10;;;3.60;84.40;;;2.65;69.21;95602.69;5036739;28;20219;-82
2020/12/19 02:56:36;;;;;;;6.00;3.78;;;3.60;84.40;;;2.65;69.40;95601.84;5036715;28;20196;-82
2020/12/19 02:59:03;;;;;;;6.93;3.92;;;3.60;84.40;;;2.65;69.09;95592.31;5053460;28;20295;-82
2020/12/19 03:01:31;;;;;;;10.75;4.03;;;3.60;84.40;;;2.66;69.17;95590.53;5036847;28;20650;-82
2020/12/19 03:04:00;;;;;;;6.13;3.75;;;3.60;84.40;;;2.64;69.06;95595.84;5052959;28;20661;-82
2020/12/19 03:06:32;;;;;;;6.07;3.90;;;3.80;84.40;;;2.62;69.30;95595.16;5037384;28;20188;-82
2020/12/19 03:09:00;;;;;;;6.82;3.80;;;3.60;84.30;;;2.62;69.23;95589.97;5036778;28;20624;-82
2020/12/19 03:11:26;;;;;;;6.25;4.00;;;3.60;84.30;;;2.62;69.14;95595.16;5049221;28;20200;-82
2020/12/19 03:13:53;;;;;;;5.05;3.20;;;3.60;84.30;;;2.57;69.42;95589.53;5050889;28;20250;-82
2020/12/19 03:16:21;;;;;;;4.80;3.17;;;3.60;84.30;;;2.62;69.11;95587.38;5052001;28;20287;-82
2020/12/19 03:18:49;;;;;;;5.63;3.65;;;3.60;84.30;;;2.61;69.63;95584.91;5036251;28;20286;-82
2020/12/19 03:21:17;;;;;;;4.88;3.70;;;3.60;84.30;;;2.60;69.37;95583.28;5035766;28;20295;-81
2020/12/19 03:23:44;;;;;;;4.40;3.25;;;3.60;84.30;;;2.59;69.10;95582.47;5050281;28;20211;-82
2020/12/19 03:26:11;;;;;;;5.22;3.65;;;3.60;84.40;;;2.61;68.93;95584.91;5033907;28;20219;-81
2020/12/19 03:28:37;;;;;;;5.22;3.47;;;3.60;84.30;;;2.60;69.12;95578.09;5051712;28;20296;-81
2020/12/19 03:31:04;;;;;;;5.13;4.35;;;3.60;84.30;;;2.61;69.10;95582.34;5067546;28;20224;-82
2020/12/19 03:33:31;;;;;;;4.80;3.60;;;3.60;84.40;;;2.56;69.32;95580.94;5035128;28;20270;-82
2020/12/19 03:35:58;;;;;;;6.97;3.85;;;3.60;84.30;;;2.58;69.01;95586.00;5033441;28;20216;-82
2020/12/19 03:38:25;;;;;;;4.97;3.45;;;3.60;84.30;;;2.55;68.98;95578.47;5050953;28;20300;-82
2020/12/19 03:40:52;;;;;;;6.88;3.65;;;3.50;84.20;;;2.54;69.14;95576.84;5053890;28;20302;-81
2020/12/19 03:43:19;;;;;;;5.70;3.38;;;3.60;84.30;;;2.52;69.10;95582.13;5051799;28;20215;-81
2020/12/19 03:45:46;;;;;;;7.93;3.53;;;3.60;84.20;;;2.51;69.20;95579.69;5016002;28;20649;-81
2020/12/19 03:48:13;;;;;;;6.25;3.40;;;3.60;84.20;;;2.46;68.95;95572.28;5051202;28;20196;-82
2020/12/19 03:50:40;;;;;;;10.45;3.60;;;3.50;84.10;;;2.49;69.00;95581.56;5044681;28;20663;-81
2020/12/19 03:53:07;;;;;;;18.33;3.78;;;3.50;84.20;;;2.48;69.03;95575.56;5018728;28;20685;-82
2020/12/19 03:55:34;;;;;;;13.60;3.33;;;3.50;84.10;;;2.43;69.13;95563.94;5050306;28;20228;-81
2020/12/19 03:58:00;;;;;;;20.35;3.92;;;3.50;84.10;;;2.48;69.11;95572.97;5067695;28;20204;-81
2020/12/19 04:00:27;;;;;;;16.67;3.97;;;3.50;84.20;;;2.46;69.21;95568.88;5031124;28;20231;-80
2020/12/19 04:02:54;;;;;;;25.75;4.22;;;3.50;84.20;;;2.45;69.19;95569.81;5032046;28;20193;-81
2020/12/19 04:05:22;;;;;;;10.52;3.85;;;3.50;84.30;;;2.47;69.04;95573.94;5031853;28;20221;-81
2020/12/19 04:07:49;;;;;;;15.38;3.75;;;3.50;84.20;;;2.43;68.91;95563.94;5034053;28;20273;-81
2020/12/19 04:10:16;;;;;;;37.63;5.03;;;3.40;84.20;;;2.45;69.32;95575.81;5033196;28;20228;-80
2020/12/19 04:12:43;;;;;;;16.50;4.20;;;3.40;85.00;;;2.42;69.14;95572.66;5048295;28;20230;-81
2020/12/19 04:15:11;;;;;;;8.95;4.03;;;3.50;84.20;;;2.42;68.80;95576.06;5047717;28;20228;-80
2020/12/19 04:17:39;;;;;;;11.93;3.63;;;3.40;84.10;;;2.42;69.02;95578.66;5032158;28;20205;-81
2020/12/19 04:20:09;;;;;;;12.07;3.78;;;3.50;84.30;;;2.40;69.00;95578.78;5050306;28;20255;-81
2020/12/19 04:22:36;;;;;;;4.88;3.25;;;3.40;84.10;;;2.42;69.41;95580.41;5032107;28;20670;-81
2020/12/19 04:25:04;;;;;;;10.93;4.00;;;3.40;84.10;;;2.42;69.26;95577.81;5048855;28;20285;-80
2020/12/19 04:27:31;;;;;;;6.13;3.67;;;3.40;84.20;;;2.43;68.86;95574.28;5041707;28;20247;-80
2020/12/19 04:29:58;;;;;;;12.73;3.65;;;3.40;84.10;;;2.42;68.85;95573.47;5050039;28;20211;-79
2020/12/19 04:32:25;;;;;;;10.50;3.17;;;3.40;84.20;;;2.43;68.82;95577.72;5050737;28;20270;-80
2020/12/19 04:34:53;;;;;;;15.60;3.83;;;3.40;84.20;;;2.42;68.90;95575.22;5050102;28;20232;-79
2020/12/19 04:37:24;;;;;;;9.50;3.50;;;3.40;84.10;;;2.37;69.11;95573.03;5050725;28;21153;-81
2020/12/19 04:39:52;;;;;;;10.95;3.67;;;3.40;84.20;;;2.36;68.97;95569.63;5036223;28;20227;-80
2020/12/19 04:42:21;;;;;;;11.43;3.45;;;3.40;84.20;;;2.34;68.94;95568.09;5049467;28;20199;-82
2020/12/19 04:44:49;;;;;;;22.73;3.78;;;3.40;84.90;;;2.33;69.11;95569.88;5048897;28;20204;-82
2020/12/19 04:47:18;;;;;;;18.95;4.30;;;3.40;84.10;;;2.35;68.93;95570.56;5016588;28;20261;-81
2020/12/19 04:49:46;;;;;;;14.25;3.83;;;3.40;84.20;;;2.31;68.97;95566.59;5030008;28;20229;-82
2020/12/19 04:52:13;;;;;;;16.98;4.05;;;3.30;84.10;;;2.31;68.94;95565.78;5013328;28;20765;-81
2020/12/19 04:54:41;;;;;;;18.10;3.85;;;3.30;84.10;;;2.28;69.14;95576.38;5012751;28;20227;-82
2020/12/19 04:57:19;;;;;;;19.58;3.20;;;3.40;84.10;;;2.24;69.35;95568.03;5016155;28;20208;-82
2020/12/19 04:59:48;;;;;;;12.00;3.00;;;3.30;84.10;;;2.28;68.99;95581.53;5066918;28;20208;-82
2020/12/19 05:02:16;;;;;;;17.52;3.13;;;3.30;84.20;;;2.27;69.31;95578.16;5032607;28;20200;-81
2020/12/19 05:04:43;;;;;;;12.63;3.35;;;3.30;84.10;;;2.27;69.10;95582.47;5050395;28;20227;-82
2020/12/19 05:07:12;;;;;;;6.90;3.05;;;3.30;84.10;;;2.27;69.03;95585.91;5048946;28;20200;-82
2020/12/19 05:09:44;;;;;;;15.82;3.40;;;3.30;84.10;;;2.24;69.02;95583.56;5016755;28;20251;-82
2020/12/19 05:12:13;;;;;;;18.95;3.20;;;3.30;84.10;;;2.20;69.24;95571.81;5017634;28;20642;-81
2020/12/19 05:14:40;;;;;;;12.85;3.15;;;3.30;84.10;;;2.23;68.98;95574.97;5014011;28;20219;-82
2020/12/19 05:17:06;;;;;;;16.92;3.20;;;3.30;84.10;;;2.25;69.29;95572.25;5030638;28;20196;-80
2020/12/19 05:19:33;;;;;;;6.95;3.20;;;3.20;84.90;;;2.26;69.00;95576.50;5037923;28;20218;-80
2020/12/19 05:22:01;;;;;;;10.45;3.13;;;3.30;84.20;;;2.27;69.28;95575.56;5067703;28;20207;-80
2020/12/19 05:24:34;;;;;;;14.40;3.40;;;3.20;84.20;;;2.27;68.99;95572.13;5034795;28;20392;-80
2020/12/19 05:27:04;;;;;;;10.98;3.22;;;3.20;84.20;;;2.27;69.04;95574.72;5050760;28;20184;-80
2020/12/19 05:29:35;;;;;;;10.63;3.13;;;3.30;84.30;;;2.28;69.18;95581.53;5050411;28;20284;-80
2020/12/19 05:32:03;;;;;;;15.68;3.38;;;3.20;84.20;;;2.27;69.31;95585.91;5034198;28;20278;-78
2020/12/19 05:34:30;;;;;;;4.95;3.13;;;3.30;84.20;;;2.27;68.99;95579.91;5050851;28;20220;-79
2020/12/19 05:36:57;;;;;;;8.25;3.13;;;3.30;84.30;;;2.30;69.12;95592.59;5050289;28;20192;-79
2020/12/19 05:39:25;;;;;;;5.25;3.05;;;3.30;84.20;;;2.32;69.07;95593.28;5034467;28;20706;-79
2020/12/19 05:41:53;;;;;;;15.43;3.42;;;3.30;84.30;;;2.30;68.89;95584.84;5033919;28;20561;-80
2020/12/19 05:44:22;;;;;;;11.32;3.30;;;3.30;84.30;;;2.32;68.95;95588.94;5050584;28;20220;-79
2020/12/19 05:46:49;;;;;;;13.23;3.60;;;3.30;84.30;;;2.32;69.30;95590.69;5050181;28;20200;-80
2020/12/19 05:49:17;;;;;;;15.00;2.95;;;3.30;84.30;;;2.31;69.05;95583.91;5033993;28;20302;-79
2020/12/19 05:51:45;;;;;;;15.45;3.15;;;3.30;84.30;;;2.31;68.97;95584.72;5017868;28;20569;-79
2020/12/19 05:54:15;;;;;;;17.73;4.50;;;3.30;84.20;;;2.29;69.30;95590.97;5034352;28;20216;-79
2020/12/19 05:56:49;;;;;;;9.43;3.70;;;3.30;84.20;;;2.29;68.92;95588.38;5049991;28;20612;-79
2020/12/19 05:59:19;;;;;;;18.25;5.88;;;3.30;84.20;;;2.26;69.04;95586.84;5017682;28;20215;-81
2020/12/19 06:01:50;;;;;;;15.25;4.85;;;3.30;84.20;;;2.25;68.82;95582.63;5033995;28;20685;-82
2020/12/19 06:04:18;;;;;;;18.55;6.35;;;3.30;84.20;;;2.26;68.89;95586.84;5033992;28;20247;-81
2020/12/19 06:06:48;;;;;;;23.48;8.10;;;3.30;84.20;;;2.26;68.97;95578.25;5034867;28;20196;-80
2020/12/19 06:09:16;;;;;;;17.27;6.35;;;3.30;84.20;;;2.25;68.89;95582.63;5038352;28;20720;-81
2020/12/19 06:12:13;;;;;;;23.52;8.90;;;3.20;84.10;;;2.24;68.98;95581.78;5021263;28;20257;-82
2020/12/19 06:14:45;;;;;;;11.52;4.25;;;3.30;84.20;;;2.22;68.94;95572.50;5017568;28;20219;-82
2020/12/19 06:17:50;;;;;;;13.23;4.70;;;3.30;84.30;;;2.27;69.14;95587.66;5034156;28;20204;-81
2020/12/19 06:20:18;;;;;;;12.63;3.90;;;3.30;84.30;;;2.22;69.07;95575.94;5017560;28;20217;-80
2020/12/19 06:22:45;;;;;;;17.52;3.58;;;3.30;84.30;;;2.28;69.19;95574.59;5017545;28;20609;-80
2020/12/19 06:25:11;;;;;;;15.70;3.35;;;3.30;84.30;;;2.30;69.34;95574.47;5050716;28;20215;-78
2020/12/19 06:27:42;;;;;;;16.35;3.80;;;3.30;84.30;;;2.32;69.03;95567.41;5036931;28;20267;-80
2020/12/19 06:30:29;;;;;;;11.48;3.53;;;3.30;84.40;;;2.32;68.83;95567.41;5017367;28;20224;-81
2020/12/19 06:33:13;;;;;;;10.00;3.10;;;3.30;84.40;;;2.34;68.88;95571.50;5021038;28;20264;-80
2020/12/19 06:35:51;;;;;;;8.85;3.25;;;3.30;84.40;;;2.34;69.15;95568.09;5019588;28;20672;-82
2020/12/19 06:39:02;;;;;;;8.27;3.15;;;3.30;84.30;;;2.33;69.04;95566.44;5038942;28;20773;-82
2020/12/19 06:41:49;;;;;;;33.47;4.10;;;3.30;84.30;;;2.31;69.21;95571.75;5037307;28;20586;-82
2020/12/19 06:44:31;;;;;;;32.05;4.18;;;3.30;85.10;;;2.31;68.85;95566.59;5032801;28;20251;-82
2020/12/19 06:47:01;;;;;;;41.42;6.90;;;3.30;84.20;;;2.27;69.14;95569.53;5053514;28;20177;-82
2020/12/19 06:49:34;;;;;;;33.97;6.00;;;3.30;84.20;;;2.28;69.05;95571.19;5036700;28;20223;-82
2020/12/19 06:52:13;;;;;;;35.25;7.03;;;3.30;84.30;;;2.23;68.98;95574.16;5035498;28;20200;-82
2020/12/19 06:54:47;;;;;;;25.48;6.35;;;3.30;84.30;;;2.24;69.06;95574.00;5035823;28;20227;-80
2020/12/19 06:57:31;;;;;;;28.98;5.20;;;3.30;84.30;;;2.25;69.17;95577.44;5067676;28;20250;-80
2020/12/19 07:00:24;;;;;;;30.42;4.97;;;3.30;84.30;;;2.22;69.17;95577.66;5050728;28;20220;-82
2020/12/19 07:03:04;;;;;;;22.63;4.22;;;3.30;84.30;;;2.24;69.18;95588.72;5018434;28;20265;-82
2020/12/19 07:05:34;;;;;;;20.63;4.60;;;3.30;84.30;;;2.20;69.08;95579.59;5018435;28;20251;-82
2020/12/19 07:08:22;;;;;;;21.60;4.45;;;3.30;84.30;;;2.23;69.05;95581.91;5034652;28;20832;-81
2020/12/19 07:10:50;;;;;;;17.63;4.13;;;3.30;84.40;;;2.24;69.21;95586.94;5035067;28;20231;-82
2020/12/19 07:13:17;;;;;;;11.65;3.28;;;3.30;84.30;;;2.26;69.10;95586.84;5019270;28;20682;-81
2020/12/19 07:15:52;;;;;;;17.27;3.92;;;3.20;84.30;;;2.29;68.91;95585.78;5035939;28;20224;-82
2020/12/19 07:18:27;;;;;;;33.08;4.07;;;3.20;84.40;;;2.30;69.06;95582.25;5035515;28;20192;-82
2020/12/19 07:21:04;;;;;;;42.33;4.75;;;3.30;84.50;;;2.29;69.03;95576.22;5052827;28;20220;-82
2020/12/19 07:23:34;;;;;;;14.02;3.92;;;3.30;84.50;;;2.26;69.12;95581.69;5019798;28;20195;-82
2020/12/19 07:26:04;;;;;;;20.02;4.00;;;3.30;84.40;;;2.28;69.13;95582.34;5018954;28;20188;-82
2020/12/19 07:28:31;;;;;;;23.13;4.03;;;3.30;84.40;;;2.29;69.18;95576.22;5017357;28;20200;-82
2020/12/19 07:30:58;;;;;;;27.77;5.32;;;3.30;84.40;;;2.30;69.00;95583.06;5018002;28;20212;-82
2020/12/19 07:33:25;;;;;;;40.95;5.93;;;3.30;84.40;;;2.30;69.16;95580.47;5050928;28;20235;-82
2020/12/19 07:35:55;;;;;;;42.63;6.68;;;3.30;84.40;;;2.26;69.05;95573.06;5034278;28;20266;-82
2020/12/19 07:38:22;;;;;;;34.10;5.20;;;3.40;84.50;;;2.30;68.97;95584.84;5032817;28;20318;-82
2020/12/19 07:40:55;;;;;;;30.70;4.22;;;3.30;84.40;;;2.29;69.04;95572.84;5017569;28;20258;-82
2020/12/19 07:43:24;;;;;;;42.42;4.50;;;3.30;84.50;;;2.31;69.01;95570.97;5019609;28;20673;-83
2020/12/19 07:45:58;;;;;;;24.90;3.90;;;3.30;84.40;;;2.31;69.22;95570.97;5068953;28;20228;-82
2020/12/19 07:48:25;;;;;;;27.42;4.50;;;3.30;84.40;;;2.32;69.12;95568.22;5035433;28;20242;-82
2020/12/19 07:50:51;;;;;;;23.45;4.00;;;3.30;84.50;;;2.34;69.31;95568.09;5035884;28;20215;-80
2020/12/19 07:53:18;;;;;;;38.42;4.68;;;3.30;84.50;;;2.34;69.00;95562.94;5052168;28;20286;-80
2020/12/19 07:55:51;;;;;;;22.73;4.03;;;3.30;84.40;;;2.35;69.08;95569.75;5034987;28;20248;-80
2020/12/19 07:58:19;;;;;;;20.52;3.80;;;3.30;84.40;;;2.29;69.14;95562.47;5018362;28;20192;-82
2020/12/19 08:00:47;;;;;;;11.40;3.38;;;3.30;84.40;;;2.33;68.91;95566.44;5034551;28;20240;-82
2020/12/19 08:03:14;;;;;;;7.15;3.20;;;3.30;84.40;;;2.32;69.15;95568.22;5050726;28;20233;-82
2020/12/19 08:05:41;;;;;;;25.27;6.35;;;3.30;84.30;;;2.34;69.19;95578.47;5033960;28;20281;-80
2020/12/19 08:08:11;;;;;;;17.00;5.25;;;3.30;84.40;;;2.33;69.41;95575.06;5033974;28;20349;-79
2020/12/19 08:10:38;;;;;;;23.73;5.50;;;3.30;84.40;;;2.31;69.21;95566.59;5050629;28;20748;-79
2020/12/19 08:13:12;;;;;;;13.10;5.20;;;3.40;84.40;;;2.29;68.95;95570.25;5018735;28;20717;-79
2020/12/19 08:15:39;;;;;;;12.75;4.10;;;3.30;84.40;;;2.29;69.07;95571.06;5035641;28;20668;-81
2020/12/19 08:18:13;;;;;;;33.97;4.57;;;3.30;84.30;;;2.29;69.09;95570.25;5051944;28;20227;-80
2020/12/19 08:20:40;;;;;;;30.67;5.18;;;3.30;84.40;;;2.29;69.44;95573.66;5035225;28;20222;-83
2020/12/19 08:23:08;;;;;;;15.43;4.30;;;3.30;84.40;;;2.32;69.33;95564.81;5034875;28;20730;-82
2020/12/19 08:25:37;;;;;;;28.98;4.32;;;3.30;84.40;;;2.29;69.27;95565.88;5018822;28;20285;-81
2020/12/19 08:28:05;;;;;;;22.33;3.65;;;3.30;84.50;;;2.36;69.08;95571.41;5018617;28;20214;-83
2020/12/19 08:30:33;;;;;;;22.60;3.47;;;3.30;84.50;;;2.37;69.42;95578.22;5017803;28;20787;-83
2020/12/19 08:33:08;;;;;;;14.98;3.42;;;3.30;84.50;;;2.37;69.52;95579.03;5018701;28;20318;-81
2020/12/19 08:35:42;;;;;;;24.35;3.63;;;3.30;84.50;;;2.40;69.00;95575.38;5035152;28;20221;-81
2020/12/19 08:38:24;;;;;;;20.80;3.83;;;3.30;84.50;;;2.43;69.39;95582.06;5017547;28;20330;-83
2020/12/19 08:40:52;;;;;;;9.07;3.65;;;3.30;84.50;;;2.42;69.25;95572.66;5034279;28;20836;-80
2020/12/19 08:43:35;;;;;;;16.80;3.70;;;3.40;84.60;;;2.44;69.02;95574.19;5035108;28;20841;-82
2020/12/19 08:46:12;;;;;;;33.70;4.18;;;3.40;84.60;;;2.49;69.17;95576.38;5035213;28;20180;-83
2020/12/19 08:48:40;;;;;;;19.90;3.70;;;3.40;84.60;;;2.50;69.24;95575.44;5034987;28;20195;-82
2020/12/19 08:51:20;;;;;;;3.83;3.13;;;3.50;84.70;;;2.50;69.29;95570.25;5034682;28;20200;-81
2020/12/19 08:53:49;;;;;;;6.38;3.17;;;3.50;84.70;;;2.51;69.14;95574.50;5035025;28;20211;-82
2020/12/19 08:56:18;;;;;;;5.63;3.05;;;3.40;84.60;;;2.51;69.16;95570.13;5034216;28;20359;-82
2020/12/19 08:58:58;;;;;;;5.90;3.50;;;3.40;84.70;;;2.52;69.01;95573.56;5018592;28;20269;-80
2020/12/19 09:01:31;;;;;;;7.28;3.88;;;3.50;84.60;;;2.54;69.10;95579.44;5034695;28;20192;-80
2020/12/19 09:04:11;;;;;;;18.90;3.90;;;3.50;84.50;;;2.51;68.92;95583.06;5052101;28;20269;-80
2020/12/19 09:06:55;;;;;;;13.27;3.83;;;3.50;84.50;;;2.49;69.32;95563.44;5018487;28;20204;-82
2020/12/19 09:09:29;;;;;;;22.75;4.45;;;3.50;84.60;;;2.56;69.23;95573.19;5034973;28;20211;-80
2020/12/19 09:12:09;;;;;;;7.10;3.40;;;3.50;84.50;;;2.59;69.27;95579.88;5033886;28;20246;-82
2020/12/19 09:14:36;;;;;;;5.68;3.40;;;3.50;84.60;;;2.61;69.25;95574.56;5034473;28;20228;-81
2020/12/19 09:17:03;;;;;;;5.25;3.97;;;3.50;84.60;;;2.60;69.13;95562.56;5034628;28;20605;-81
2020/12/19 09:19:32;;;;;;;10.73;4.13;;;3.50;84.60;;;2.62;68.91;95571.03;5030743;28;20212;-82
2020/12/19 09:22:03;;;;;;;7.85;4.07;;;3.50;84.50;;;2.62;68.66;95565.84;4998504;28;20557;-80
2020/12/19 09:24:29;;;;;;;14.57;4.43;;;3.50;84.50;;;2.64;69.10;95563.97;5030914;28;20282;-80
2020/12/19 09:26:56;;;;;;;9.63;3.92;;;3.50;84.50;;;2.66;68.93;95564.63;5030741;28;20185;-80
2020/12/19 09:29:24;;;;;;;28.52;5.53;;;3.60;84.60;;;2.64;68.88;95557.00;5020604;28;20220;-79
2020/12/19 09:31:51;;;;;;;20.15;4.38;;;3.60;84.60;;;2.64;68.85;95559.59;5016999;28;20279;-80
2020/12/19 09:34:17;;;;;;;18.02;4.15;;;3.60;84.50;;;2.64;69.28;95558.78;5034520;28;20701;-80
2020/12/19 09:36:44;;;;;;;39.88;4.70;;;3.60;84.50;;;2.65;68.89;95556.06;5050241;28;20196;-80
2020/12/19 09:39:11;;;;;;;18.95;4.35;;;3.60;84.50;;;2.63;68.81;95552.75;5030702;28;20216;-80
2020/12/19 09:41:41;;;;;;;17.35;4.13;;;3.60;84.50;;;2.63;69.10;95551.97;5038832;28;20265;-81
2020/12/19 09:44:08;;;;;;;24.45;4.88;;;3.60;84.50;;;2.67;69.04;95555.94;5021694;28;20230;-80
2020/12/19 09:46:34;;;;;;;14.43;4.18;;;3.60;84.60;;;2.68;69.21;95550.59;5053649;28;20714;-79
2020/12/19 09:49:01;;;;;;;14.30;3.95;;;3.60;84.50;;;2.71;69.04;95562.47;5053039;28;20224;-79
2020/12/19 09:51:31;;;;;;;12.95;3.90;;;3.60;84.50;;;2.73;69.30;95552.81;5037919;28;20212;-79
2020/12/19 09:53:58;;;;;;;12.30;3.95;;;3.60;84.60;;;2.68;69.33;95542.84;5037714;28;20231;-83
2020/12/19 09:56:25;;;;;;;24.23;4.80;;;3.60;84.60;;;2.75;68.86;95543.16;5037851;28;20203;-83
2020/12/19 09:58:52;;;;;;;42.88;4.85;;;3.60;84.60;;;2.75;68.81;95542.31;5021200;28;20542;-81
2020/12/19 10:01:19;;;;;;;29.23;4.78;;;3.70;84.70;;;2.77;69.08;95541.28;5037077;28;20192;-80
2020/12/19 10:03:46;;;;;;;24.70;4.25;;;3.70;84.70;;;2.76;68.89;95533.63;5037580;28;20208;-80
2020/12/19 10:06:16;;;;;;;26.98;4.55;;;3.70;84.60;;;2.75;69.05;95535.41;5021451;28;20658;-80
2020/12/19 10:08:43;;;;;;;12.30;3.80;;;3.70;84.60;;;2.79;69.16;95530.78;5054243;28;20205;-79
2020/12/19 10:11:09;;;;;;;20.83;4.97;;;3.70;84.60;;;2.80;69.17;95530.66;5021100;28;20584;-80
2020/12/19 10:13:36;;;;;;;25.83;4.75;;;3.70;84.60;;;2.83;68.96;95532.16;5053629;28;20681;-78
2020/12/19 10:16:06;;;;;;;31.00;4.80;;;3.70;84.60;;;2.86;69.32;95535.31;5054027;28;20200;-80
2020/12/19 10:18:33;;;;;;;29.77;5.13;;;3.70;84.70;;;2.88;69.23;95530.84;5037749;28;20516;-81
2020/12/19 10:21:01;;;;;;;18.42;4.70;;;3.70;84.80;;;2.88;68.85;95530.84;5021518;28;20618;-81
2020/12/19 10:23:29;;;;;;;18.92;4.85;;;3.80;84.80;;;2.90;68.99;95530.69;5054217;28;20237;-79
2020/12/19 10:25:56;;;;;;;8.68;4.10;;;3.80;84.70;;;2.89;68.78;95529.06;5037236;28;20243;-80
2020/12/19 10:28:23;;;;;;;18.90;4.13;;;3.80;84.60;;;2.88;68.86;95524.81;5037547;28;20208;-81
2020/12/19 10:30:50;;;;;;;24.08;3.92;;;3.80;84.60;;;2.92;68.65;95522.78;5053686;28;20792;-82
2020/12/19 10:33:17;;;;;;;26.10;4.43;;;3.80;84.60;;;2.95;69.12;95523.34;5053949;28;20228;-79
2020/12/19 10:35:43;;;;;;;35.63;4.28;;;3.80;84.60;;;2.98;68.92;95530.03;5037168;28;20306;-79
2020/12/19 10:38:10;;;;;;;20.05;4.47;;;3.80;84.60;;;2.98;69.13;95525.69;5037333;28;20204;-79